Time;durP1;ratioP1;P1;durP2;ratioP2;P2;SDS_P1;SDS_P2;PMS_P1;PMS_P2;Temp;Humidity;BMP_temperature;BMP_pressure;BME280_temperature;BME280_humidity;BME280_pressure;Samples;Min_cycle;Max_cycle;Signal;HPM_P1;HPM_P2
2022/01/10 00:01:46;;;;;;;10.37;5.57;;;3.50;73.10;;;;;;5073855;28;20025;-69
2022/01/10 00:04:12;;;;;;;10.10;5.53;;;3.50;73.20;;;;;;5073828;28;20036;-70
2022/01/10 00:06:38;;;;;;;9.13;5.57;;;3.60;73.10;;;;;;5073844;28;20473;-70
2022/01/10 00:09:04;;;;;;;9.37;5.70;;;3.60;73.00;;;;;;5073796;28;20374;-70
2022/01/10 00:11:30;;;;;;;9.30;5.50;;;3.60;72.90;;;;;;5073650;28;20032;-69
2022/01/10 00:13:56;;;;;;;9.73;5.27;;;3.60;72.80;;;;;;5073583;28;20078;-70
2022/01/10 00:16:22;;;;;;;8.63;5.13;;;3.60;72.80;;;;;;5073435;28;20488;-70
2022/01/10 00:18:48;;;;;;;10.07;5.77;;;3.60;72.70;;;;;;5073534;28;20032;-69
2022/01/10 00:21:13;;;;;;;7.27;4.97;;;3.60;72.60;;;;;;5073271;28;20043;-71
2022/01/10 00:23:39;;;;;;;10.30;5.53;;;3.60;72.40;;;;;;5073543;28;20058;-71
2022/01/10 00:26:05;;;;;;;9.47;5.27;;;3.60;72.40;;;;;;5073451;28;20082;-70
2022/01/10 00:28:30;;;;;;;8.27;4.87;;;3.60;72.20;;;;;;5073355;28;20032;-70
2022/01/10 00:30:56;;;;;;;12.00;5.60;;;3.70;72.20;;;;;;5073333;28;20074;-71
2022/01/10 00:33:22;;;;;;;8.53;5.17;;;3.60;72.10;;;;;;5073093;28;20070;-71
2022/01/10 00:35:48;;;;;;;12.03;5.60;;;3.70;72.00;;;;;;5072101;28;20024;-74
2022/01/10 00:38:13;;;;;;;10.90;5.70;;;3.70;72.10;;;;;;5073326;28;20021;-70
2022/01/10 00:40:40;;;;;;;9.97;5.83;;;3.70;72.10;;;;;;5073507;28;20024;-70
2022/01/10 00:43:08;;;;;;;12.13;5.60;;;3.70;72.10;;;;;;5073257;28;20035;-73
2022/01/10 00:45:34;;;;;;;11.13;5.93;;;3.70;72.00;;;;;;5073238;28;20031;-70
2022/01/10 00:48:00;;;;;;;9.53;5.40;;;3.70;72.10;;;;;;5072482;28;20028;-70
2022/01/10 00:50:27;;;;;;;10.00;6.03;;;3.70;72.00;;;;;;5073043;28;20043;-72
2022/01/10 00:52:55;;;;;;;8.97;5.40;;;3.70;71.90;;;;;;5073126;28;20090;-70
2022/01/10 00:55:21;;;;;;;9.07;4.97;;;3.70;72.10;;;;;;5072796;28;20017;-71
2022/01/10 00:57:46;;;;;;;10.07;5.33;;;3.70;72.00;;;;;;5073551;28;20048;-70
2022/01/10 01:00:15;;;;;;;7.80;4.47;;;3.70;71.90;;;;;;5073386;28;20044;-72
2022/01/10 01:02:41;;;;;;;7.07;3.73;;;3.70;71.90;;;;;;5073008;28;20092;-70
2022/01/10 01:05:10;;;;;;;6.80;3.97;;;3.70;71.50;;;;;;5072912;28;20452;-70
2022/01/10 01:07:37;;;;;;;9.00;3.93;;;3.80;71.60;;;;;;5073002;28;20085;-73
2022/01/10 01:10:36;;;;;;;5.27;3.43;;;3.80;71.30;;;;;;5073064;28;20473;-71
2022/01/10 01:13:11;;;;;;;6.37;3.37;;;3.80;70.90;;;;;;5072685;28;20062;-72
2022/01/10 01:15:56;;;;;;;7.17;3.70;;;3.90;70.60;;;;;;5072757;28;20040;-71
2022/01/10 01:24:02;;;;;;;9.43;5.30;;;3.90;70.50;;;;;;5072982;28;20038;-72
2022/01/10 01:26:29;;;;;;;7.60;4.20;;;3.90;70.60;;;;;;5072729;28;20525;-70
2022/01/10 01:28:55;;;;;;;9.30;5.07;;;3.90;70.60;;;;;;5072473;28;20083;-71
2022/01/10 01:31:21;;;;;;;7.37;4.03;;;3.90;70.60;;;;;;5071537;28;20473;-70
2022/01/10 01:33:46;;;;;;;7.57;4.20;;;4.00;70.60;;;;;;5072597;28;20434;-71
2022/01/10 01:36:12;;;;;;;5.80;3.50;;;4.00;70.40;;;;;;5072751;28;20523;-72
2022/01/10 01:38:39;;;;;;;6.63;3.97;;;3.90;70.10;;;;;;5072862;28;20028;-70
2022/01/10 01:41:34;;;;;;;9.00;5.13;;;4.00;70.20;;;;;;5072514;28;20495;-71
2022/01/10 01:44:00;;;;;;;7.03;3.70;;;4.00;70.20;;;;;;5072494;28;20113;-71
2022/01/10 01:46:26;;;;;;;8.60;4.20;;;4.00;69.60;;;;;;5072609;28;20455;-71
2022/01/10 01:48:53;;;;;;;8.30;4.50;;;4.00;69.70;;;;;;5072907;28;20435;-71
2022/01/10 01:51:20;;;;;;;8.27;4.13;;;4.00;69.70;;;;;;5072675;28;20102;-72
2022/01/10 01:53:46;;;;;;;8.07;4.57;;;4.00;69.70;;;;;;5072283;28;20172;-72
2022/01/10 01:56:14;;;;;;;8.57;3.50;;;4.00;69.60;;;;;;5072549;28;20032;-72
2022/01/10 01:58:41;;;;;;;6.43;3.97;;;4.00;69.60;;;;;;5070199;28;20548;-73
2022/01/10 02:01:08;;;;;;;7.63;4.50;;;4.00;69.50;;;;;;5072592;28;20028;-73
2022/01/10 02:03:38;;;;;;;7.47;3.93;;;4.00;69.70;;;;;;5073180;28;20035;-71
2022/01/10 02:06:05;;;;;;;7.33;4.40;;;4.00;69.80;;;;;;5075363;28;20047;-70
2022/01/10 02:08:32;;;;;;;7.70;4.63;;;4.00;69.90;;;;;;5075655;28;20028;-71
2022/01/10 02:10:58;;;;;;;7.87;4.67;;;4.00;70.00;;;;;;5075688;28;20170;-72
2022/01/10 02:13:24;;;;;;;8.27;4.10;;;4.00;69.80;;;;;;5075388;28;20099;-73
2022/01/10 02:15:57;;;;;;;7.17;4.17;;;4.00;69.90;;;;;;5075945;28;20020;-73
2022/01/10 02:18:23;;;;;;;;;;;4.00;69.90;;;;;;5076037;28;20063;-76
2022/01/10 02:20:49;;;;;;;10.13;3.90;;;4.00;69.80;;;;;;5075260;28;19956;-73
2022/01/10 02:23:15;;;;;;;6.33;3.80;;;4.00;69.70;;;;;;5075864;28;20021;-71
2022/01/10 02:25:42;;;;;;;7.00;3.77;;;4.00;70.10;;;;;;5074295;28;20027;-72
2022/01/10 02:28:08;;;;;;;10.00;4.43;;;4.00;70.30;;;;;;5075302;28;20136;-75
2022/01/10 02:30:35;;;;;;;13.10;7.07;;;4.00;70.30;;;;;;5075314;28;20020;-72
2022/01/10 02:33:01;;;;;;;10.53;5.73;;;4.00;70.60;;;;;;5075413;28;20055;-73
2022/01/10 02:35:36;;;;;;;10.70;6.07;;;4.00;70.50;;;;;;5075027;28;20020;-74
2022/01/10 02:38:02;;;;;;;8.87;5.57;;;4.00;70.50;;;;;;5075642;28;20012;-69
2022/01/10 02:40:29;;;;;;;14.23;6.80;;;4.00;70.50;;;;;;5075326;28;20016;-73
2022/01/10 02:42:55;;;;;;;10.83;6.13;;;4.00;71.00;;;;;;5073548;28;20168;-72
2022/01/10 02:45:21;;;;;;;9.37;5.50;;;4.00;71.00;;;;;;5075338;28;20028;-73
2022/01/10 02:47:48;;;;;;;9.03;5.10;;;4.00;71.40;;;;;;5074983;28;20452;-74
2022/01/10 02:50:15;;;;;;;9.20;5.40;;;3.90;72.00;;;;;;5074989;28;20029;-72
2022/01/10 02:52:41;;;;;;;8.13;4.57;;;3.90;71.60;;;;;;5074912;28;20441;-70
2022/01/10 02:55:09;;;;;;;8.33;4.90;;;3.90;71.40;;;;;;5074872;28;20033;-72
2022/01/10 02:57:35;;;;;;;7.90;4.83;;;4.00;71.20;;;;;;5075397;28;20029;-71
2022/01/10 03:00:12;;;;;;;11.40;5.23;;;3.90;71.20;;;;;;5075075;28;20021;-73
2022/01/10 03:02:38;;;;;;;8.10;4.83;;;4.00;71.40;;;;;;5074916;28;20035;-72
2022/01/10 03:05:05;;;;;;;8.40;4.97;;;4.00;71.70;;;;;;5075097;28;20369;-71
2022/01/10 03:07:31;;;;;;;7.50;5.07;;;3.90;72.00;;;;;;5074556;28;20374;-70
2022/01/10 03:09:57;;;;;;;10.00;5.07;;;3.90;71.90;;;;;;5074931;28;20024;-70
2022/01/10 03:12:24;;;;;;;7.53;4.63;;;3.90;71.60;;;;;;5074005;28;20117;-74
2022/01/10 03:14:50;;;;;;;7.93;3.93;;;3.90;71.10;;;;;;5074699;28;20055;-75
2022/01/10 03:17:15;;;;;;;6.80;3.93;;;3.90;70.80;;;;;;5074673;28;20056;-75
2022/01/10 03:19:42;;;;;;;7.00;3.70;;;3.90;70.50;;;;;;5074668;28;20465;-72
2022/01/10 03:22:09;;;;;;;6.93;4.00;;;3.90;70.60;;;;;;5074344;28;20463;-71
2022/01/10 03:24:35;;;;;;;7.47;4.07;;;4.00;70.50;;;;;;5074370;28;20016;-70
2022/01/10 03:27:02;;;;;;;8.33;4.60;;;4.00;70.40;;;;;;5074348;28;20025;-70
2022/01/10 03:29:28;;;;;;;6.13;3.83;;;4.00;70.40;;;;;;5074299;28;20045;-73
2022/01/10 03:31:53;;;;;;;8.77;4.37;;;4.00;70.30;;;;;;5074460;28;20083;-72
2022/01/10 03:34:19;;;;;;;7.93;4.30;;;4.00;70.20;;;;;;5074446;28;20529;-69
2022/01/10 03:36:45;;;;;;;7.13;3.90;;;4.00;70.20;;;;;;5074270;28;20033;-70
2022/01/10 03:39:14;;;;;;;6.53;4.17;;;4.00;70.10;;;;;;5074197;28;20427;-70
2022/01/10 03:41:41;;;;;;;7.13;4.13;;;4.00;70.10;;;;;;5074131;28;20383;-74
2022/01/10 03:44:07;;;;;;;7.03;4.30;;;4.00;70.10;;;;;;5073894;28;20025;-72
2022/01/10 03:46:34;;;;;;;8.03;4.20;;;4.00;70.10;;;;;;5073958;28;20024;-73
2022/01/10 03:49:00;;;;;;;7.33;3.67;;;4.00;70.10;;;;;;5073858;28;20032;-72
2022/01/10 03:51:27;;;;;;;6.90;3.73;;;4.00;70.10;;;;;;5073788;28;20457;-73
2022/01/10 03:53:53;;;;;;;7.70;3.90;;;4.00;70.00;;;;;;5073632;28;20086;-69
2022/01/10 03:56:19;;;;;;;7.47;4.20;;;4.00;69.90;;;;;;5073936;28;20481;-70
2022/01/10 03:58:45;;;;;;;7.30;3.83;;;4.00;70.00;;;;;;5073760;28;20063;-71
2022/01/10 04:01:12;;;;;;;8.20;3.77;;;4.00;70.20;;;;;;5073828;28;20020;-74
2022/01/10 04:03:43;;;;;;;6.33;3.70;;;4.00;70.00;;;;;;5073388;28;20028;-70
2022/01/10 04:06:09;;;;;;;6.67;4.03;;;4.00;70.10;;;;;;5073649;28;20025;-71
2022/01/10 04:08:35;;;;;;;9.07;5.70;;;4.00;70.10;;;;;;5073478;28;20501;-70
2022/01/10 04:11:02;;;;;;;6.67;4.33;;;4.00;70.10;;;;;;5073669;28;20028;-71
2022/01/10 04:13:28;;;;;;;6.93;3.57;;;4.00;70.00;;;;;;5073513;28;20042;-72
2022/01/10 04:15:54;;;;;;;5.17;3.43;;;4.00;69.90;;;;;;5073484;28;20029;-69
2022/01/10 04:18:20;;;;;;;5.37;3.47;;;4.00;69.70;;;;;;5073367;28;20071;-70
2022/01/10 04:20:46;;;;;;;5.47;3.43;;;4.00;69.70;;;;;;5073110;28;20056;-72
2022/01/10 04:23:13;;;;;;;7.73;4.50;;;4.00;69.40;;;;;;5073299;28;20024;-71
2022/01/10 04:25:39;;;;;;;10.87;4.00;;;4.00;69.60;;;;;;5073128;28;20059;-71
2022/01/10 04:28:05;;;;;;;7.80;4.03;;;4.00;69.70;;;;;;5073272;28;20063;-71
2022/01/10 04:30:31;;;;;;;8.23;3.90;;;4.10;69.60;;;;;;5073418;28;20024;-69
2022/01/10 04:32:58;;;;;;;7.17;4.20;;;4.00;69.80;;;;;;5073439;28;20398;-74
2022/01/10 04:35:25;;;;;;;7.20;4.03;;;4.00;69.80;;;;;;5073346;28;20040;-70
2022/01/10 04:37:51;;;;;;;6.13;3.50;;;4.00;69.90;;;;;;5073372;28;20099;-69
2022/01/10 04:40:17;;;;;;;6.17;3.70;;;4.00;69.90;;;;;;5073399;28;20504;-72
2022/01/10 04:42:43;;;;;;;9.70;4.50;;;4.00;69.90;;;;;;5073259;28;20025;-75
2022/01/10 04:45:09;;;;;;;7.80;4.70;;;4.00;70.00;;;;;;5073267;28;20099;-71
2022/01/10 04:47:35;;;;;;;6.03;4.03;;;4.00;70.00;;;;;;5072862;28;20029;-72
2022/01/10 04:52:30;;;;;;;7.77;4.00;;;4.00;70.20;;;;;;5073177;28;20085;-70
2022/01/10 04:54:57;;;;;;;5.83;3.73;;;4.00;70.40;;;;;;5072871;28;20488;-68
2022/01/10 04:57:22;;;;;;;6.87;3.57;;;4.00;70.20;;;;;;5073162;28;20044;-71
2022/01/10 04:59:49;;;;;;;6.17;3.90;;;4.00;70.10;;;;;;5073182;28;20020;-71
2022/01/10 05:02:15;;;;;;;4.87;3.23;;;4.10;69.50;;;;;;5073032;28;20503;-72
2022/01/10 05:04:40;;;;;;;6.83;3.67;;;4.00;69.40;;;;;;5072616;28;20060;-74
2022/01/10 05:07:07;;;;;;;6.43;3.83;;;4.00;69.50;;;;;;5073136;28;20025;-71
2022/01/10 05:09:33;;;;;;;8.03;3.73;;;4.00;69.90;;;;;;5073001;28;20072;-72
2022/01/10 05:11:59;;;;;;;6.60;3.73;;;4.00;69.40;;;;;;5073019;28;20035;-71
2022/01/10 05:14:25;;;;;;;7.43;3.83;;;4.00;69.50;;;;;;5072837;28;20387;-70
2022/01/10 05:16:51;;;;;;;4.97;3.40;;;4.10;69.60;;;;;;5073090;28;20028;-70
2022/01/10 05:19:16;;;;;;;5.80;3.63;;;4.00;69.60;;;;;;5072959;28;20112;-76
2022/01/10 05:21:42;;;;;;;8.47;3.90;;;4.00;70.40;;;;;;5072821;28;20055;-71
2022/01/10 05:24:08;;;;;;;6.10;3.60;;;4.00;70.60;;;;;;5072759;28;20032;-71
2022/01/10 05:26:35;;;;;;;5.00;3.40;;;3.90;70.40;;;;;;5072762;28;20032;-71
2022/01/10 05:29:02;;;;;;;5.43;3.50;;;4.00;70.30;;;;;;5072535;28;20041;-69
2022/01/10 05:31:29;;;;;;;5.33;3.10;;;4.00;70.10;;;;;;5072813;28;20044;-70
2022/01/10 05:33:56;;;;;;;10.30;4.00;;;4.00;70.30;;;;;;5072826;28;20032;-71
2022/01/10 05:36:22;;;;;;;6.30;3.90;;;4.00;70.40;;;;;;5076021;28;20450;-69
2022/01/10 05:38:48;;;;;;;6.87;4.37;;;4.00;70.20;;;;;;5076642;28;20052;-70
2022/01/10 05:41:14;;;;;;;7.10;4.00;;;3.90;70.20;;;;;;5076659;28;20118;-74
2022/01/10 05:43:40;;;;;;;5.80;3.60;;;4.00;70.20;;;;;;5076206;28;20031;-74
2022/01/10 05:46:08;;;;;;;7.37;3.80;;;4.00;70.10;;;;;;5076475;28;20489;-70
2022/01/10 05:48:35;;;;;;;5.20;3.20;;;4.00;70.90;;;;;;5076301;28;20032;-75
2022/01/10 05:51:02;;;;;;;5.30;3.90;;;4.00;70.00;;;;;;5076456;28;20025;-68
2022/01/10 05:53:28;;;;;;;7.60;4.00;;;4.00;70.00;;;;;;5075095;28;20056;-69
2022/01/10 05:55:54;;;;;;;7.30;3.97;;;4.00;70.00;;;;;;5076296;28;20461;-69
2022/01/10 05:58:20;;;;;;;6.33;4.00;;;4.00;69.90;;;;;;5076346;28;20024;-72
2022/01/10 06:00:47;;;;;;;5.80;3.60;;;4.00;69.90;;;;;;5076090;28;20059;-69
2022/01/10 06:03:13;;;;;;;6.60;3.40;;;4.00;69.80;;;;;;5076266;28;20029;-69
2022/01/10 06:05:39;;;;;;;7.23;3.70;;;4.00;69.50;;;;;;5075867;28;20059;-73
2022/01/10 06:08:06;;;;;;;10.47;3.57;;;4.00;69.40;;;;;;5075655;28;20032;-73
2022/01/10 06:10:32;;;;;;;6.33;3.47;;;4.00;69.50;;;;;;5076074;28;20055;-71
2022/01/10 06:12:59;;;;;;;5.57;3.80;;;4.00;69.50;;;;;;5076170;28;20028;-71
2022/01/10 06:15:24;;;;;;;6.53;3.80;;;4.00;70.10;;;;;;5076029;28;20366;-70
2022/01/10 06:17:50;;;;;;;8.00;3.63;;;4.00;69.60;;;;;;5075948;28;20040;-69
2022/01/10 06:20:16;;;;;;;5.40;3.50;;;4.00;69.60;;;;;;5075802;28;20072;-70
2022/01/10 06:22:43;;;;;;;7.13;3.87;;;4.00;69.50;;;;;;5075559;28;20083;-70
2022/01/10 06:25:11;;;;;;;8.43;4.13;;;4.00;69.50;;;;;;5075675;28;20095;-69
2022/01/10 06:27:37;;;;;;;6.83;3.60;;;4.00;69.20;;;;;;5075758;28;20353;-71
2022/01/10 06:30:04;;;;;;;7.43;3.70;;;4.00;69.00;;;;;;5075555;28;20035;-71
2022/01/10 06:32:29;;;;;;;7.90;3.80;;;4.00;69.20;;;;;;5075535;28;20021;-70
2022/01/10 06:34:57;;;;;;;6.97;4.20;;;4.00;69.20;;;;;;5075432;28;20035;-70
2022/01/10 06:37:23;;;;;;;8.27;3.97;;;4.00;69.30;;;;;;5075534;28;20016;-69
2022/01/10 06:39:48;;;;;;;7.83;4.00;;;4.00;69.30;;;;;;5075612;28;20532;-69
2022/01/10 06:42:14;;;;;;;7.63;3.47;;;4.00;69.30;;;;;;5075737;28;20051;-74
2022/01/10 06:44:40;;;;;;;7.03;4.20;;;4.00;69.10;;;;;;5075130;28;20028;-70
2022/01/10 06:47:06;;;;;;;8.33;3.87;;;4.10;69.20;;;;;;5074263;28;20028;-69
2022/01/10 06:49:32;;;;;;;7.40;3.90;;;4.00;69.10;;;;;;5075202;28;20028;-70
2022/01/10 06:51:58;;;;;;;10.37;4.70;;;4.00;69.10;;;;;;5075252;28;20029;-74
2022/01/10 06:54:24;;;;;;;7.20;4.00;;;4.00;69.20;;;;;;5074931;28;20078;-69
2022/01/10 06:56:50;;;;;;;6.63;3.90;;;4.00;69.60;;;;;;5075513;28;20017;-72
2022/01/10 06:59:15;;;;;;;7.67;4.10;;;4.00;69.50;;;;;;5075208;28;20028;-71
2022/01/10 07:01:41;;;;;;;8.33;4.30;;;4.00;69.40;;;;;;5075038;28;20495;-74
2022/01/10 07:04:07;;;;;;;12.07;4.60;;;4.00;69.30;;;;;;5074945;28;20033;-69
2022/01/10 07:06:32;;;;;;;8.53;4.93;;;4.00;69.40;;;;;;5074822;28;20029;-70
2022/01/10 07:08:58;;;;;;;8.03;4.53;;;4.00;69.70;;;;;;5075038;28;20389;-69
2022/01/10 07:11:24;;;;;;;8.00;4.40;;;4.00;69.70;;;;;;5074893;28;20017;-69
2022/01/10 07:13:50;;;;;;;8.83;4.20;;;4.00;69.60;;;;;;5073416;28;20025;-69
2022/01/10 07:16:15;;;;;;;7.23;4.33;;;4.00;70.10;;;;;;5073498;28;20384;-69
2022/01/10 07:18:41;;;;;;;9.50;4.30;;;4.00;69.40;;;;;;5074430;28;20183;-69
2022/01/10 07:21:07;;;;;;;6.87;4.37;;;4.00;69.40;;;;;;5074515;28;20127;-69
2022/01/10 07:23:32;;;;;;;7.60;4.67;;;4.00;69.50;;;;;;5074520;28;20035;-68
2022/01/10 07:25:58;;;;;;;7.60;4.67;;;4.00;69.40;;;;;;5074718;28;20020;-67
2022/01/10 07:28:24;;;;;;;7.00;4.20;;;4.00;69.40;;;;;;5074501;28;20086;-69
2022/01/10 07:30:50;;;;;;;7.87;4.20;;;4.00;69.30;;;;;;5074615;28;20444;-68
2022/01/10 07:33:16;;;;;;;8.50;5.40;;;4.00;69.10;;;;;;5074328;28;20028;-68
2022/01/10 07:35:42;;;;;;;9.57;4.70;;;4.10;69.00;;;;;;5074191;28;20031;-68
2022/01/10 07:38:08;;;;;;;7.47;3.90;;;4.10;68.60;;;;;;5071887;28;20024;-68
2022/01/10 07:40:33;;;;;;;12.93;4.20;;;4.20;68.10;;;;;;5071579;28;20094;-68
2022/01/10 07:42:59;;;;;;;10.97;5.00;;;4.20;68.10;;;;;;5071557;28;20031;-67
2022/01/10 07:45:25;;;;;;;9.50;5.63;;;4.20;68.40;;;;;;5073956;28;20080;-68
2022/01/10 07:47:52;;;;;;;7.90;4.17;;;4.20;68.50;;;;;;5074106;28;20055;-68
2022/01/10 07:50:17;;;;;;;9.73;4.80;;;4.20;68.00;;;;;;5074166;28;20036;-68
2022/01/10 07:52:43;;;;;;;7.97;4.47;;;4.30;67.10;;;;;;5073483;28;20032;-67
2022/01/10 07:55:10;;;;;;;8.37;4.20;;;4.30;67.00;;;;;;5074075;28;20032;-67
2022/01/10 07:57:35;;;;;;;6.50;3.77;;;4.40;66.50;;;;;;5073455;28;20028;-69
2022/01/10 08:00:05;;;;;;;5.40;3.50;;;4.40;65.40;;;;;;5070207;28;20089;-68
2022/01/10 08:02:31;;;;;;;9.33;3.97;;;4.50;65.30;;;;;;5070817;28;20029;-69
2022/01/10 08:04:57;;;;;;;10.00;3.70;;;4.50;65.40;;;;;;5072268;28;20032;-69
2022/01/10 08:07:23;;;;;;;11.77;4.40;;;4.50;65.60;;;;;;5073097;28;20048;-68
2022/01/10 08:09:48;;;;;;;6.90;4.50;;;4.60;65.30;;;;;;5072154;28;20048;-69
2022/01/10 08:12:14;;;;;;;9.53;4.83;;;4.50;65.70;;;;;;5073727;28;20021;-68
2022/01/10 08:14:40;;;;;;;8.17;4.90;;;4.60;65.60;;;;;;5073141;28;20039;-68
2022/01/10 08:17:06;;;;;;;10.30;5.33;;;4.60;65.80;;;;;;5073618;28;20033;-68
2022/01/10 08:19:33;;;;;;;9.10;4.80;;;4.60;66.10;;;;;;5073674;28;20107;-71
2022/01/10 08:22:03;;;;;;;9.40;4.63;;;4.60;66.30;;;;;;5073015;28;20135;-71
2022/01/10 08:24:29;;;;;;;7.47;4.80;;;4.60;66.20;;;;;;5073433;28;20047;-73
2022/01/10 08:26:55;;;;;;;11.77;5.17;;;4.70;66.30;;;;;;5073373;28;20484;-70
2022/01/10 08:29:21;;;;;;;8.07;4.60;;;4.70;66.60;;;;;;5072897;28;20044;-70
2022/01/10 08:31:47;;;;;;;11.13;5.40;;;4.70;66.40;;;;;;5073323;28;20028;-70
2022/01/10 08:34:13;;;;;;;13.20;4.90;;;4.70;66.30;;;;;;5073232;28;20035;-69
2022/01/10 08:36:39;;;;;;;9.47;5.13;;;4.70;66.60;;;;;;5073147;28;20047;-68
2022/01/10 08:39:06;;;;;;;7.70;4.80;;;4.70;67.10;;;;;;5073113;28;20465;-68
2022/01/10 08:41:32;;;;;;;9.97;4.77;;;4.70;66.90;;;;;;5073061;28;20457;-69
2022/01/10 08:43:58;;;;;;;9.57;4.53;;;4.80;66.70;;;;;;5072692;28;20050;-68
2022/01/10 08:46:24;;;;;;;7.60;4.87;;;4.80;66.60;;;;;;5073044;28;20021;-71
2022/01/10 08:48:50;;;;;;;9.07;5.13;;;4.80;67.20;;;;;;5072880;28;20036;-69
2022/01/10 08:51:16;;;;;;;13.83;5.43;;;4.80;66.60;;;;;;5070955;28;20024;-68
2022/01/10 08:53:42;;;;;;;18.77;5.30;;;4.90;66.50;;;;;;5070040;28;20035;-68
2022/01/10 08:56:08;;;;;;;12.63;5.57;;;4.90;66.40;;;;;;5071621;28;20020;-69
2022/01/10 08:58:34;;;;;;;11.57;4.80;;;4.90;66.40;;;;;;5073072;28;20082;-69
2022/01/10 09:01:00;;;;;;;12.13;5.47;;;4.90;66.30;;;;;;5073026;28;20140;-69
2022/01/10 09:03:26;;;;;;;9.17;4.30;;;5.00;65.70;;;;;;5072968;28;20530;-69
2022/01/10 09:05:54;;;;;;;8.83;5.07;;;5.00;65.90;;;;;;5072999;28;20028;-69
2022/01/10 09:08:21;;;;;;;7.80;4.47;;;5.00;66.50;;;;;;5072520;28;20032;-69
2022/01/10 09:10:47;;;;;;;9.93;5.10;;;5.00;66.20;;;;;;5075295;28;20392;-69
2022/01/10 09:13:13;;;;;;;10.20;5.20;;;5.00;66.50;;;;;;5077184;28;20027;-69
2022/01/10 09:15:38;;;;;;;9.17;4.27;;;5.10;66.90;;;;;;5077099;28;20051;-69
2022/01/10 09:18:04;;;;;;;8.43;4.63;;;5.10;66.70;;;;;;5077147;28;20520;-69
2022/01/10 09:20:30;;;;;;;9.17;4.60;;;5.10;66.60;;;;;;5077084;28;20053;-69
2022/01/10 09:22:56;;;;;;;14.63;4.77;;;5.20;66.40;;;;;;5076828;28;20497;-69
2022/01/10 09:25:22;;;;;;;12.37;4.40;;;5.20;66.40;;;;;;5076769;28;20116;-69
2022/01/10 09:27:48;;;;;;;9.90;4.67;;;5.30;65.90;;;;;;5076883;28;20440;-69
2022/01/10 09:30:14;;;;;;;8.70;4.00;;;5.40;65.80;;;;;;5075375;28;20056;-70
2022/01/10 09:32:40;;;;;;;7.67;3.93;;;5.50;65.90;;;;;;5076436;28;20062;-71
2022/01/10 09:35:07;;;;;;;10.27;4.40;;;5.50;65.20;;;;;;5076026;28;20117;-72
2022/01/10 09:37:32;;;;;;;8.53;3.70;;;5.60;65.00;;;;;;5074921;28;20021;-71
2022/01/10 09:39:58;;;;;;;8.17;3.30;;;5.70;64.50;;;;;;5076638;28;20033;-71
2022/01/10 09:42:24;;;;;;;6.90;3.77;;;5.70;64.20;;;;;;5076554;28;20074;-72
2022/01/10 09:44:50;;;;;;;9.27;3.80;;;5.80;63.30;;;;;;5076584;28;20439;-72
2022/01/10 09:47:16;;;;;;;9.83;4.00;;;5.80;63.00;;;;;;5076490;28;20047;-72
2022/01/10 09:49:41;;;;;;;10.37;4.00;;;5.90;62.50;;;;;;5076137;28;20127;-72
2022/01/10 09:52:07;;;;;;;6.07;3.83;;;5.90;62.60;;;;;;5076472;28;20100;-73
2022/01/10 09:54:33;;;;;;;7.33;4.33;;;5.90;62.30;;;;;;5076249;28;20078;-70
2022/01/10 09:56:59;;;;;;;10.50;4.97;;;5.90;62.50;;;;;;5076276;28;20492;-72
2022/01/10 09:59:25;;;;;;;7.70;4.20;;;6.00;62.00;;;;;;5076340;28;20028;-73
2022/01/10 10:01:52;;;;;;;6.60;4.23;;;6.00;62.10;;;;;;5076343;28;20017;-73
2022/01/10 10:04:18;;;;;;;12.07;3.70;;;6.10;62.40;;;;;;5076406;28;20028;-71
2022/01/10 10:06:46;;;;;;;9.97;3.30;;;6.10;62.10;;;;;;5076256;28;20036;-72
2022/01/10 10:09:12;;;;;;;12.43;3.93;;;6.20;61.60;;;;;;5076041;28;20064;-72
2022/01/10 10:11:42;;;;;;;6.03;3.40;;;6.20;62.00;;;;;;5076594;28;20052;-71
2022/01/10 10:14:09;;;;;;;7.67;3.37;;;6.30;61.50;;;;;;5076080;28;20024;-72
2022/01/10 10:16:37;;;;;;;6.07;3.47;;;6.40;60.80;;;;;;5075662;28;20052;-72
2022/01/10 10:19:05;;;;;;;6.60;2.90;;;6.40;60.80;;;;;;5075789;28;20051;-72
2022/01/10 10:21:33;;;;;;;5.47;3.40;;;6.50;59.90;;;;;;5075527;28;20563;-72
2022/01/10 10:24:03;;;;;;;6.00;3.60;;;6.60;59.70;;;;;;5075694;28;20017;-72
2022/01/10 10:26:30;;;;;;;8.00;3.80;;;6.60;59.90;;;;;;5074466;28;20446;-72
2022/01/10 10:28:56;;;;;;;6.40;3.73;;;6.70;58.70;;;;;;5076018;28;20388;-73
2022/01/10 10:31:26;;;;;;;12.47;4.33;;;6.70;59.20;;;;;;5074424;28;20358;-73
2022/01/10 10:33:54;;;;;;;6.30;3.50;;;6.80;59.00;;;;;;5075754;28;20025;-73
2022/01/10 10:36:20;;;;;;;7.30;3.63;;;6.90;58.50;;;;;;5075725;28;20020;-73
2022/01/10 10:38:46;;;;;;;7.27;4.27;;;6.90;58.20;;;;;;5075181;28;20020;-72
2022/01/10 10:41:12;;;;;;;6.23;3.43;;;6.90;57.90;;;;;;5073801;28;20024;-73
2022/01/10 10:43:41;;;;;;;7.43;3.60;;;7.00;58.10;;;;;;5074567;28;20059;-73
2022/01/10 10:46:16;;;;;;;11.23;4.00;;;7.00;58.00;;;;;;5075298;28;20048;-72
2022/01/10 10:48:49;;;;;;;6.23;3.57;;;7.00;58.00;;;;;;5075612;28;20097;-73
2022/01/10 10:51:16;;;;;;;6.30;3.70;;;7.00;57.90;;;;;;5073848;28;20116;-72
2022/01/10 10:53:42;;;;;;;6.37;3.30;;;7.10;57.80;;;;;;5074820;28;20119;-72
2022/01/10 10:56:08;;;;;;;6.73;3.90;;;7.20;58.10;;;;;;5075152;28;20024;-73
2022/01/10 10:58:34;;;;;;;5.80;3.73;;;7.30;58.20;;;;;;5075171;28;20024;-73
2022/01/10 11:01:01;;;;;;;10.83;4.23;;;7.30;57.90;;;;;;5075310;28;20028;-73
2022/01/10 11:03:27;;;;;;;8.53;4.23;;;7.40;56.90;;;;;;5075052;28;20078;-73
2022/01/10 11:06:01;;;;;;;9.17;3.37;;;7.40;57.20;;;;;;5074895;28;20017;-73
2022/01/10 11:08:30;;;;;;;4.67;3.10;;;7.50;56.90;;;;;;5074892;28;20119;-72
2022/01/10 11:10:56;;;;;;;6.53;3.47;;;7.60;57.50;;;;;;5074968;28;20362;-73
2022/01/10 11:13:24;;;;;;;6.03;3.30;;;7.60;55.70;;;;;;5075011;28;20032;-73
2022/01/10 11:15:51;;;;;;;5.80;3.10;;;7.70;55.60;;;;;;5074961;28;20016;-73
2022/01/10 11:18:19;;;;;;;7.17;3.30;;;7.80;56.00;;;;;;5074843;28;20052;-73
2022/01/10 11:20:48;;;;;;;4.73;2.93;;;7.80;55.10;;;;;;5074665;28;20048;-72
2022/01/10 11:23:14;;;;;;;7.40;3.63;;;7.90;54.70;;;;;;5074793;28;20024;-73
2022/01/10 11:25:40;;;;;;;7.50;3.17;;;7.90;55.20;;;;;;5074539;28;20035;-73
2022/01/10 11:28:12;;;;;;;5.90;3.40;;;8.00;54.90;;;;;;5074533;28;20171;-72
2022/01/10 11:30:44;;;;;;;4.77;2.60;;;8.00;54.80;;;;;;5074607;28;20093;-73
2022/01/10 11:33:19;;;;;;;6.30;2.70;;;8.10;52.60;;;;;;5073925;28;20032;-73
2022/01/10 11:35:53;;;;;;;5.20;2.73;;;8.10;53.00;;;;;;5074581;28;20098;-73
2022/01/10 11:38:25;;;;;;;7.90;3.10;;;8.20;53.60;;;;;;5074388;28;20023;-73
2022/01/10 11:41:09;;;;;;;5.07;2.50;;;8.30;53.10;;;;;;5074723;28;20023;-73
2022/01/10 11:43:52;;;;;;;3.90;2.37;;;8.40;52.30;;;;;;5074542;28;20025;-73
2022/01/10 11:46:28;;;;;;;4.75;1.75;;;8.40;51.70;;;;;;5074340;28;20059;-73
2022/01/10 11:48:59;;;;;;;6.40;1.47;;;8.50;50.60;;;;;;5073744;28;20037;-73
2022/01/10 11:51:27;;;;;;;4.63;2.17;;;8.50;50.80;;;;;;5074306;28;20027;-73
2022/01/10 11:53:59;;;;;;;5.53;2.50;;;8.70;50.50;;;;;;5074046;28;20031;-72
2022/01/10 11:56:31;;;;;;;7.53;3.03;;;8.70;51.10;;;;;;5074055;28;20023;-73
2022/01/10 11:59:13;;;;;;;4.22;2.38;;;8.80;52.00;;;;;;5073643;28;20521;-73
2022/01/10 12:02:10;;;;;;;6.10;2.60;;;8.90;51.30;;;;;;5073667;28;20028;-72
2022/01/10 12:04:38;;;;;;;8.63;2.20;;;9.00;49.60;;;;;;5066739;28;20039;-73
2022/01/10 12:07:09;;;;;;;7.10;2.33;;;9.10;51.70;;;;;;5073832;28;20056;-73
2022/01/10 12:09:35;;;;;;;5.03;2.07;;;9.20;51.40;;;;;;5073835;28;20028;-72
2022/01/10 12:12:03;;;;;;;4.93;2.00;;;9.30;50.90;;;;;;5073776;28;20074;-73
2022/01/10 12:14:29;;;;;;;3.17;1.70;;;9.40;50.60;;;;;;5073386;28;20458;-72
2022/01/10 12:16:56;;;;;;;3.53;2.00;;;9.40;49.50;;;;;;5073434;28;20032;-73
2022/01/10 12:19:23;;;;;;;2.47;1.00;;;9.50;49.00;;;;;;5073554;28;20024;-73
2022/01/10 12:21:49;;;;;;;5.07;2.27;;;9.50;48.90;;;;;;5073300;28;20047;-72
2022/01/10 12:24:15;;;;;;;4.60;2.80;;;9.60;48.60;;;;;;5073626;28;20112;-73
2022/01/10 12:26:41;;;;;;;5.67;2.93;;;9.60;49.20;;;;;;5072425;28;20044;-72
2022/01/10 12:29:09;;;;;;;8.40;2.80;;;9.60;49.80;;;;;;5073275;28;20040;-72
2022/01/10 12:31:37;;;;;;;7.93;3.33;;;9.60;49.10;;;;;;5073374;28;20025;-73
2022/01/10 12:34:04;;;;;;;5.50;3.27;;;9.60;49.70;;;;;;5073749;28;20103;-72
2022/01/10 12:36:32;;;;;;;8.90;3.83;;;9.60;49.90;;;;;;5073743;28;20025;-73
2022/01/10 12:39:05;;;;;;;4.40;2.97;;;9.60;49.90;;;;;;5073047;28;20027;-73
2022/01/10 12:41:32;;;;;;;2.63;1.47;;;9.50;50.90;;;;;;5071962;28;20028;-72
2022/01/10 12:43:59;;;;;;;0.40;0.33;;;9.50;47.80;;;;;;5073058;28;20538;-73
2022/01/10 12:46:27;;;;;;;7.40;2.00;;;9.60;45.30;;;;;;5073130;28;20492;-71
2022/01/10 12:48:54;;;;;;;6.17;2.67;;;9.60;45.50;;;;;;5073051;28;20041;-73
2022/01/10 12:51:20;;;;;;;7.30;3.67;;;9.60;47.60;;;;;;5072927;28;20544;-72
2022/01/10 12:53:48;;;;;;;6.17;3.63;;;9.60;48.70;;;;;;5072646;28;20469;-72
2022/01/10 12:56:19;;;;;;;5.37;3.20;;;9.50;49.60;;;;;;5072879;28;20032;-72
2022/01/10 12:58:45;;;;;;;6.43;3.87;;;9.50;50.10;;;;;;5073251;28;20027;-72
2022/01/10 13:01:13;;;;;;;8.23;3.80;;;9.50;49.70;;;;;;5073082;28;20029;-72
2022/01/10 13:03:42;;;;;;;6.37;3.93;;;9.50;49.70;;;;;;5072812;28;20076;-73